sensor_id;sensor_type;location;lat;lon;timestamp;P1;durP1;ratioP1;P2;durP2;ratioP2
1839;SDS011;920;48.944;9.148;2023-09-19T00:00:06;1.50;;;0.80;;
1839;SDS011;920;48.944;9.148;2023-09-19T00:02:33;1.80;;;1.00;;
1839;SDS011;920;48.944;9.148;2023-09-19T00:05:01;2.10;;;1.00;;
1839;SDS011;920;48.944;9.148;2023-09-19T00:07:28;2.47;;;1.03;;
1839;SDS011;920;48.944;9.148;2023-09-19T00:09:55;1.73;;;0.80;;
1839;SDS011;920;48.944;9.148;2023-09-19T00:12:22;3.77;;;1.00;;
1839;SDS011;920;48.944;9.148;2023-09-19T00:14:50;1.90;;;1.10;;
1839;SDS011;920;48.944;9.148;2023-09-19T00:17:18;2.33;;;0.90;;
1839;SDS011;920;48.944;9.148;2023-09-19T00:19:44;2.20;;;1.10;;
1839;SDS011;920;48.944;9.148;2023-09-19T00:22:11;2.53;;;1.00;;
1839;SDS011;920;48.944;9.148;2023-09-19T00:24:41;3.20;;;1.00;;
1839;SDS011;920;48.944;9.148;2023-09-19T00:27:07;5.23;;;1.10;;
1839;SDS011;920;48.944;9.148;2023-09-19T00:29:35;2.30;;;1.27;;
1839;SDS011;920;48.944;9.148;2023-09-19T00:32:03;2.63;;;1.07;;
1839;SDS011;920;48.944;9.148;2023-09-19T00:34:30;1.60;;;0.80;;
1839;SDS011;920;48.944;9.148;2023-09-19T00:36:59;2.60;;;1.00;;
1839;SDS011;920;48.944;9.148;2023-09-19T00:39:26;2.43;;;1.17;;
1839;SDS011;920;48.944;9.148;2023-09-19T00:41:56;2.73;;;1.00;;
1839;SDS011;920;48.944;9.148;2023-09-19T00:44:23;2.67;;;1.17;;
1839;SDS011;920;48.944;9.148;2023-09-19T00:46:50;1.90;;;0.80;;
1839;SDS011;920;48.944;9.148;2023-09-19T00:49:18;2.03;;;0.80;;
1839;SDS011;920;48.944;9.148;2023-09-19T00:51:48;2.47;;;0.90;;
1839;SDS011;920;48.944;9.148;2023-09-19T00:54:15;1.60;;;0.80;;
1839;SDS011;920;48.944;9.148;2023-09-19T00:56:44;2.10;;;0.90;;
1839;SDS011;920;48.944;9.148;2023-09-19T00:59:11;2.20;;;1.27;;
1839;SDS011;920;48.944;9.148;2023-09-19T01:01:38;2.10;;;1.00;;
1839;SDS011;920;48.944;9.148;2023-09-19T01:04:05;2.27;;;0.90;;
1839;SDS011;920;48.944;9.148;2023-09-19T01:06:34;3.73;;;1.20;;
1839;SDS011;920;48.944;9.148;2023-09-19T01:09:02;1.70;;;0.70;;
1839;SDS011;920;48.944;9.148;2023-09-19T01:11:31;2.10;;;1.10;;
1839;SDS011;920;48.944;9.148;2023-09-19T01:14:09;2.30;;;1.00;;
1839;SDS011;920;48.944;9.148;2023-09-19T01:16:45;2.03;;;1.10;;
1839;SDS011;920;48.944;9.148;2023-09-19T01:19:26;2.30;;;1.00;;
1839;SDS011;920;48.944;9.148;2023-09-19T01:22:21;2.07;;;0.97;;
1839;SDS011;920;48.944;9.148;2023-09-19T01:25:07;2.00;;;0.87;;
1839;SDS011;920;48.944;9.148;2023-09-19T01:28:06;7.13;;;1.10;;
1839;SDS011;920;48.944;9.148;2023-09-19T01:30:43;1.83;;;0.83;;
1839;SDS011;920;48.944;9.148;2023-09-19T01:33:13;2.30;;;0.80;;
1839;SDS011;920;48.944;9.148;2023-09-19T01:35:41;1.80;;;0.80;;
1839;SDS011;920;48.944;9.148;2023-09-19T01:38:08;2.33;;;0.83;;
1839;SDS011;920;48.944;9.148;2023-09-19T01:40:38;1.90;;;1.00;;
1839;SDS011;920;48.944;9.148;2023-09-19T01:43:09;2.60;;;0.97;;
1839;SDS011;920;48.944;9.148;2023-09-19T01:45:42;2.47;;;0.93;;
1839;SDS011;920;48.944;9.148;2023-09-19T01:48:19;1.90;;;1.00;;
1839;SDS011;920;48.944;9.148;2023-09-19T01:50:49;2.33;;;1.03;;
1839;SDS011;920;48.944;9.148;2023-09-19T01:53:22;1.97;;;1.00;;
1839;SDS011;920;48.944;9.148;2023-09-19T01:55:50;2.10;;;0.93;;
1839;SDS011;920;48.944;9.148;2023-09-19T01:58:20;2.23;;;0.90;;
1839;SDS011;920;48.944;9.148;2023-09-19T02:00:49;1.80;;;0.90;;
1839;SDS011;920;48.944;9.148;2023-09-19T02:03:17;1.97;;;0.70;;
1839;SDS011;920;48.944;9.148;2023-09-19T02:05:48;2.40;;;0.97;;
1839;SDS011;920;48.944;9.148;2023-09-19T02:08:16;1.70;;;0.90;;
1839;SDS011;920;48.944;9.148;2023-09-19T02:10:43;2.20;;;1.23;;
1839;SDS011;920;48.944;9.148;2023-09-19T02:13:14;1.73;;;0.87;;
1839;SDS011;920;48.944;9.148;2023-09-19T02:15:43;1.70;;;0.87;;
1839;SDS011;920;48.944;9.148;2023-09-19T02:21:47;2.00;;;1.00;;
1839;SDS011;920;48.944;9.148;2023-09-19T02:24:14;2.03;;;1.00;;
1839;SDS011;920;48.944;9.148;2023-09-19T02:26:41;2.20;;;1.00;;
1839;SDS011;920;48.944;9.148;2023-09-19T02:29:09;1.70;;;0.80;;
1839;SDS011;920;48.944;9.148;2023-09-19T02:31:36;1.90;;;1.00;;
1839;SDS011;920;48.944;9.148;2023-09-19T02:34:02;2.53;;;1.20;;
1839;SDS011;920;48.944;9.148;2023-09-19T02:36:33;2.00;;;0.80;;
1839;SDS011;920;48.944;9.148;2023-09-19T02:39:01;1.70;;;0.80;;
1839;SDS011;920;48.944;9.148;2023-09-19T02:41:29;2.00;;;1.00;;
1839;SDS011;920;48.944;9.148;2023-09-19T02:43:57;1.70;;;0.70;;
1839;SDS011;920;48.944;9.148;2023-09-19T02:46:26;2.27;;;0.97;;
1839;SDS011;920;48.944;9.148;2023-09-19T02:48:53;1.80;;;0.80;;
1839;SDS011;920;48.944;9.148;2023-09-19T02:51:20;2.00;;;0.80;;
1839;SDS011;920;48.944;9.148;2023-09-19T02:53:46;2.20;;;0.90;;
1839;SDS011;920;48.944;9.148;2023-09-19T02:56:15;2.30;;;0.87;;
1839;SDS011;920;48.944;9.148;2023-09-19T02:58:43;1.93;;;0.90;;
1839;SDS011;920;48.944;9.148;2023-09-19T03:01:10;2.10;;;0.83;;
1839;SDS011;920;48.944;9.148;2023-09-19T03:03:37;2.07;;;0.90;;
1839;SDS011;920;48.944;9.148;2023-09-19T03:06:05;2.00;;;0.90;;
1839;SDS011;920;48.944;9.148;2023-09-19T03:08:33;2.50;;;1.10;;
1839;SDS011;920;48.944;9.148;2023-09-19T03:11:01;2.00;;;1.00;;
1839;SDS011;920;48.944;9.148;2023-09-19T03:13:32;1.83;;;0.73;;
1839;SDS011;920;48.944;9.148;2023-09-19T03:26:39;1.70;;;0.90;;
1839;SDS011;920;48.944;9.148;2023-09-19T03:29:06;2.17;;;1.00;;
1839;SDS011;920;48.944;9.148;2023-09-19T03:31:35;2.20;;;1.00;;
1839;SDS011;920;48.944;9.148;2023-09-19T03:34:03;2.13;;;0.90;;
1839;SDS011;920;48.944;9.148;2023-09-19T03:36:30;2.93;;;0.97;;
1839;SDS011;920;48.944;9.148;2023-09-19T03:38:59;2.77;;;1.10;;
1839;SDS011;920;48.944;9.148;2023-09-19T03:41:27;1.80;;;1.00;;
1839;SDS011;920;48.944;9.148;2023-09-19T03:43:56;1.70;;;0.80;;
1839;SDS011;920;48.944;9.148;2023-09-19T03:46:22;1.80;;;0.90;;
1839;SDS011;920;48.944;9.148;2023-09-19T03:48:50;1.70;;;0.80;;
1839;SDS011;920;48.944;9.148;2023-09-19T03:51:17;2.30;;;1.00;;
1839;SDS011;920;48.944;9.148;2023-09-19T03:53:43;2.67;;;0.70;;
1839;SDS011;920;48.944;9.148;2023-09-19T03:56:10;2.27;;;0.90;;
1839;SDS011;920;48.944;9.148;2023-09-19T03:58:37;2.10;;;0.90;;
1839;SDS011;920;48.944;9.148;2023-09-19T04:01:06;1.90;;;0.90;;
1839;SDS011;920;48.944;9.148;2023-09-19T04:03:33;1.80;;;0.90;;
1839;SDS011;920;48.944;9.148;2023-09-19T04:06:11;1.90;;;0.90;;
1839;SDS011;920;48.944;9.148;2023-09-19T04:08:38;2.00;;;1.00;;
1839;SDS011;920;48.944;9.148;2023-09-19T04:11:04;1.83;;;1.10;;
1839;SDS011;920;48.944;9.148;2023-09-19T04:13:31;2.23;;;1.27;;
1839;SDS011;920;48.944;9.148;2023-09-19T04:15:58;3.20;;;1.40;;
1839;SDS011;920;48.944;9.148;2023-09-19T04:18:26;2.20;;;1.20;;
1839;SDS011;920;48.944;9.148;2023-09-19T04:20:53;2.50;;;1.40;;
1839;SDS011;920;48.944;9.148;2023-09-19T04:23:21;3.50;;;1.17;;
1839;SDS011;920;48.944;9.148;2023-09-19T04:25:48;4.30;;;0.97;;
1839;SDS011;920;48.944;9.148;2023-09-19T04:28:15;2.10;;;1.10;;
1839;SDS011;920;48.944;9.148;2023-09-19T04:30:42;2.40;;;1.30;;
1839;SDS011;920;48.944;9.148;2023-09-19T04:33:55;2.83;;;1.30;;
1839;SDS011;920;48.944;9.148;2023-09-19T04:36:24;2.13;;;1.30;;
1839;SDS011;920;48.944;9.148;2023-09-19T04:38:51;3.20;;;1.37;;
1839;SDS011;920;48.944;9.148;2023-09-19T04:41:18;3.60;;;1.20;;
1839;SDS011;920;48.944;9.148;2023-09-19T04:43:45;5.77;;;1.93;;
1839;SDS011;920;48.944;9.148;2023-09-19T04:46:12;2.60;;;1.50;;
1839;SDS011;920;48.944;9.148;2023-09-19T04:48:39;2.10;;;1.27;;
1839;SDS011;920;48.944;9.148;2023-09-19T04:51:08;2.67;;;1.47;;
1839;SDS011;920;48.944;9.148;2023-09-19T04:53:35;4.00;;;1.87;;
1839;SDS011;920;48.944;9.148;2023-09-19T04:56:02;2.23;;;1.43;;
1839;SDS011;920;48.944;9.148;2023-09-19T04:58:33;2.33;;;1.27;;
1839;SDS011;920;48.944;9.148;2023-09-19T05:01:00;2.17;;;1.20;;
1839;SDS011;920;48.944;9.148;2023-09-19T05:03:29;3.23;;;1.43;;
1839;SDS011;920;48.944;9.148;2023-09-19T05:05:56;3.93;;;1.70;;
1839;SDS011;920;48.944;9.148;2023-09-19T05:08:24;2.27;;;1.33;;
1839;SDS011;920;48.944;9.148;2023-09-19T05:10:52;2.70;;;1.40;;
1839;SDS011;920;48.944;9.148;2023-09-19T05:13:21;2.13;;;1.20;;
1839;SDS011;920;48.944;9.148;2023-09-19T05:15:48;2.40;;;1.40;;
1839;SDS011;920;48.944;9.148;2023-09-19T05:18:15;3.17;;;1.30;;
1839;SDS011;920;48.944;9.148;2023-09-19T05:20:42;2.77;;;1.50;;
1839;SDS011;920;48.944;9.148;2023-09-19T05:23:09;3.00;;;1.70;;
1839;SDS011;920;48.944;9.148;2023-09-19T05:25:38;3.10;;;1.50;;
1839;SDS011;920;48.944;9.148;2023-09-19T05:28:05;3.40;;;1.50;;
1839;SDS011;920;48.944;9.148;2023-09-19T05:30:33;2.80;;;1.60;;
1839;SDS011;920;48.944;9.148;2023-09-19T05:33:01;3.13;;;1.13;;
1839;SDS011;920;48.944;9.148;2023-09-19T05:35:29;1.87;;;1.10;;
1839;SDS011;920;48.944;9.148;2023-09-19T05:37:56;2.73;;;1.30;;
1839;SDS011;920;48.944;9.148;2023-09-19T05:40:23;2.50;;;1.30;;
1839;SDS011;920;48.944;9.148;2023-09-19T05:42:51;2.70;;;1.33;;
1839;SDS011;920;48.944;9.148;2023-09-19T05:45:18;3.20;;;1.50;;
1839;SDS011;920;48.944;9.148;2023-09-19T05:47:47;2.73;;;1.40;;
1839;SDS011;920;48.944;9.148;2023-09-19T05:50:15;3.00;;;1.20;;
1839;SDS011;920;48.944;9.148;2023-09-19T05:52:42;2.80;;;1.47;;
1839;SDS011;920;48.944;9.148;2023-09-19T05:55:09;2.53;;;1.30;;
1839;SDS011;920;48.944;9.148;2023-09-19T05:57:36;3.17;;;1.70;;
1839;SDS011;920;48.944;9.148;2023-09-19T06:00:06;4.83;;;1.30;;
1839;SDS011;920;48.944;9.148;2023-09-19T06:02:38;3.87;;;1.43;;
1839;SDS011;920;48.944;9.148;2023-09-19T06:05:06;2.20;;;1.43;;
1839;SDS011;920;48.944;9.148;2023-09-19T06:07:35;2.50;;;1.30;;
1839;SDS011;920;48.944;9.148;2023-09-19T06:10:02;2.73;;;1.43;;
1839;SDS011;920;48.944;9.148;2023-09-19T06:12:32;2.90;;;1.50;;
1839;SDS011;920;48.944;9.148;2023-09-19T06:22:18;2.90;;;1.60;;
1839;SDS011;920;48.944;9.148;2023-09-19T06:24:45;2.93;;;1.50;;
1839;SDS011;920;48.944;9.148;2023-09-19T06:27:12;3.87;;;1.60;;
1839;SDS011;920;48.944;9.148;2023-09-19T06:29:39;2.60;;;1.50;;
1839;SDS011;920;48.944;9.148;2023-09-19T06:32:06;2.83;;;1.33;;
1839;SDS011;920;48.944;9.148;2023-09-19T06:34:35;2.60;;;1.30;;
1839;SDS011;920;48.944;9.148;2023-09-19T06:37:02;2.90;;;1.60;;
1839;SDS011;920;48.944;9.148;2023-09-19T06:39:32;3.73;;;1.27;;
1839;SDS011;920;48.944;9.148;2023-09-19T06:41:59;3.10;;;1.50;;
1839;SDS011;920;48.944;9.148;2023-09-19T06:44:27;2.30;;;1.40;;
1839;SDS011;920;48.944;9.148;2023-09-19T06:46:55;3.80;;;1.83;;
1839;SDS011;920;48.944;9.148;2023-09-19T06:49:21;3.07;;;1.80;;
1839;SDS011;920;48.944;9.148;2023-09-19T06:51:48;3.80;;;1.50;;
1839;SDS011;920;48.944;9.148;2023-09-19T06:54:15;3.90;;;1.40;;
1839;SDS011;920;48.944;9.148;2023-09-19T06:56:45;2.40;;;1.17;;
1839;SDS011;920;48.944;9.148;2023-09-19T06:59:12;3.00;;;1.90;;
1839;SDS011;920;48.944;9.148;2023-09-19T07:01:39;2.60;;;1.60;;
1839;SDS011;920;48.944;9.148;2023-09-19T07:04:06;3.87;;;1.80;;
1839;SDS011;920;48.944;9.148;2023-09-19T07:06:33;3.33;;;1.57;;
1839;SDS011;920;48.944;9.148;2023-09-19T07:09:00;2.93;;;1.37;;
1839;SDS011;920;48.944;9.148;2023-09-19T07:11:27;3.23;;;1.83;;
1839;SDS011;920;48.944;9.148;2023-09-19T07:13:57;3.63;;;1.70;;
1839;SDS011;920;48.944;9.148;2023-09-19T07:16:24;2.87;;;1.70;;
1839;SDS011;920;48.944;9.148;2023-09-19T07:18:55;3.30;;;1.70;;
1839;SDS011;920;48.944;9.148;2023-09-19T07:21:22;2.70;;;1.63;;
1839;SDS011;920;48.944;9.148;2023-09-19T07:23:49;3.40;;;1.77;;
1839;SDS011;920;48.944;9.148;2023-09-19T07:26:16;3.10;;;1.37;;
1839;SDS011;920;48.944;9.148;2023-09-19T07:28:42;3.27;;;1.40;;
1839;SDS011;920;48.944;9.148;2023-09-19T07:31:10;3.63;;;1.40;;
1839;SDS011;920;48.944;9.148;2023-09-19T07:33:39;3.13;;;1.60;;
1839;SDS011;920;48.944;9.148;2023-09-19T07:36:09;3.60;;;1.60;;
1839;SDS011;920;48.944;9.148;2023-09-19T07:38:38;5.03;;;1.80;;
1839;SDS011;920;48.944;9.148;2023-09-19T07:41:05;3.10;;;1.40;;
1839;SDS011;920;48.944;9.148;2023-09-19T07:43:34;2.80;;;1.60;;
1839;SDS011;920;48.944;9.148;2023-09-19T07:46:04;2.67;;;1.30;;
1839;SDS011;920;48.944;9.148;2023-09-19T07:48:40;2.40;;;1.33;;
1839;SDS011;920;48.944;9.148;2023-09-19T07:51:09;4.60;;;1.70;;
1839;SDS011;920;48.944;9.148;2023-09-19T07:53:36;2.83;;;1.50;;
1839;SDS011;920;48.944;9.148;2023-09-19T07:56:03;3.20;;;1.33;;
1839;SDS011;920;48.944;9.148;2023-09-19T07:58:31;3.80;;;1.60;;
1839;SDS011;920;48.944;9.148;2023-09-19T08:01:02;4.83;;;1.43;;
1839;SDS011;920;48.944;9.148;2023-09-19T08:03:31;2.13;;;1.30;;
1839;SDS011;920;48.944;9.148;2023-09-19T08:05:57;3.07;;;1.40;;
1839;SDS011;920;48.944;9.148;2023-09-19T08:08:24;3.40;;;1.23;;
1839;SDS011;920;48.944;9.148;2023-09-19T08:10:52;3.30;;;1.47;;
1839;SDS011;920;48.944;9.148;2023-09-19T08:13:21;3.07;;;1.70;;
1839;SDS011;920;48.944;9.148;2023-09-19T08:15:48;5.80;;;1.80;;
1839;SDS011;920;48.944;9.148;2023-09-19T08:18:15;2.70;;;1.23;;
1839;SDS011;920;48.944;9.148;2023-09-19T08:20:48;2.07;;;1.20;;
1839;SDS011;920;48.944;9.148;2023-09-19T08:23:15;3.03;;;1.30;;
1839;SDS011;920;48.944;9.148;2023-09-19T08:25:43;3.57;;;1.47;;
1839;SDS011;920;48.944;9.148;2023-09-19T08:28:10;2.83;;;1.40;;
1839;SDS011;920;48.944;9.148;2023-09-19T08:30:37;2.40;;;1.30;;
1839;SDS011;920;48.944;9.148;2023-09-19T08:33:05;3.07;;;1.30;;
1839;SDS011;920;48.944;9.148;2023-09-19T08:35:32;2.80;;;1.60;;
1839;SDS011;920;48.944;9.148;2023-09-19T08:38:01;2.73;;;1.20;;
1839;SDS011;920;48.944;9.148;2023-09-19T08:40:29;3.33;;;1.20;;
1839;SDS011;920;48.944;9.148;2023-09-19T08:42:59;2.90;;;1.47;;
1839;SDS011;920;48.944;9.148;2023-09-19T08:45:26;1.93;;;1.10;;
1839;SDS011;920;48.944;9.148;2023-09-19T08:47:55;2.37;;;1.10;;
1839;SDS011;920;48.944;9.148;2023-09-19T08:50:28;2.73;;;1.50;;
1839;SDS011;920;48.944;9.148;2023-09-19T08:52:56;2.80;;;1.40;;
1839;SDS011;920;48.944;9.148;2023-09-19T08:55:26;2.83;;;1.20;;
1839;SDS011;920;48.944;9.148;2023-09-19T08:57:57;2.00;;;0.90;;
1839;SDS011;920;48.944;9.148;2023-09-19T09:00:27;2.60;;;1.10;;
1839;SDS011;920;48.944;9.148;2023-09-19T09:02:55;2.40;;;1.20;;
1839;SDS011;920;48.944;9.148;2023-09-19T09:05:23;1.90;;;1.00;;
1839;SDS011;920;48.944;9.148;2023-09-19T09:07:51;3.07;;;1.20;;
1839;SDS011;920;48.944;9.148;2023-09-19T09:10:21;2.03;;;1.13;;
1839;SDS011;920;48.944;9.148;2023-09-19T09:12:49;3.27;;;1.10;;
1839;SDS011;920;48.944;9.148;2023-09-19T09:15:18;2.60;;;1.60;;
1839;SDS011;920;48.944;9.148;2023-09-19T09:17:48;2.10;;;1.30;;
1839;SDS011;920;48.944;9.148;2023-09-19T09:20:16;2.10;;;1.20;;
1839;SDS011;920;48.944;9.148;2023-09-19T09:22:50;4.40;;;1.70;;
1839;SDS011;920;48.944;9.148;2023-09-19T09:25:17;3.00;;;1.23;;
1839;SDS011;920;48.944;9.148;2023-09-19T09:27:45;3.17;;;1.40;;
1839;SDS011;920;48.944;9.148;2023-09-19T09:30:16;3.17;;;1.70;;
1839;SDS011;920;48.944;9.148;2023-09-19T09:33:07;2.50;;;1.10;;
1839;SDS011;920;48.944;9.148;2023-09-19T09:35:36;3.67;;;1.27;;
1839;SDS011;920;48.944;9.148;2023-09-19T09:38:04;2.43;;;1.37;;
1839;SDS011;920;48.944;9.148;2023-09-19T09:40:45;2.30;;;1.13;;
1839;SDS011;920;48.944;9.148;2023-09-19T09:43:24;2.53;;;1.10;;
1839;SDS011;920;48.944;9.148;2023-09-19T09:46:10;2.50;;;1.40;;
1839;SDS011;920;48.944;9.148;2023-09-19T09:48:56;4.27;;;1.27;;
1839;SDS011;920;48.944;9.148;2023-09-19T09:51:37;4.70;;;1.20;;
1839;SDS011;920;48.944;9.148;2023-09-19T09:54:09;3.13;;;1.20;;
1839;SDS011;920;48.944;9.148;2023-09-19T09:56:41;2.90;;;1.33;;
1839;SDS011;920;48.944;9.148;2023-09-19T09:59:19;4.83;;;2.53;;
1839;SDS011;920;48.944;9.148;2023-09-19T10:01:50;3.43;;;1.50;;
1839;SDS011;920;48.944;9.148;2023-09-19T10:04:26;3.10;;;1.60;;
1839;SDS011;920;48.944;9.148;2023-09-19T10:06:55;2.80;;;1.73;;
1839;SDS011;920;48.944;9.148;2023-09-19T10:09:22;3.27;;;1.33;;
1839;SDS011;920;48.944;9.148;2023-09-19T10:12:03;2.60;;;1.40;;
1839;SDS011;920;48.944;9.148;2023-09-19T10:14:34;2.23;;;1.17;;
1839;SDS011;920;48.944;9.148;2023-09-19T10:17:06;3.10;;;1.20;;
1839;SDS011;920;48.944;9.148;2023-09-19T10:19:36;2.83;;;1.20;;
1839;SDS011;920;48.944;9.148;2023-09-19T10:22:05;2.67;;;1.50;;
1839;SDS011;920;48.944;9.148;2023-09-19T10:24:34;2.77;;;1.20;;
1839;SDS011;920;48.944;9.148;2023-09-19T10:27:04;2.47;;;1.10;;
1839;SDS011;920;48.944;9.148;2023-09-19T10:29:31;3.40;;;1.40;;
1839;SDS011;920;48.944;9.148;2023-09-19T10:32:01;2.20;;;1.20;;
1839;SDS011;920;48.944;9.148;2023-09-19T10:34:32;2.77;;;1.43;;
1839;SDS011;920;48.944;9.148;2023-09-19T10:37:01;3.37;;;1.40;;
1839;SDS011;920;48.944;9.148;2023-09-19T10:39:31;2.40;;;1.17;;
1839;SDS011;920;48.944;9.148;2023-09-19T10:42:01;5.20;;;1.50;;
1839;SDS011;920;48.944;9.148;2023-09-19T10:44:31;2.40;;;1.30;;
1839;SDS011;920;48.944;9.148;2023-09-19T10:46:59;2.47;;;1.50;;
1839;SDS011;920;48.944;9.148;2023-09-19T10:49:25;2.20;;;1.10;;
1839;SDS011;920;48.944;9.148;2023-09-19T10:51:54;3.03;;;1.20;;
1839;SDS011;920;48.944;9.148;2023-09-19T10:54:24;3.27;;;1.20;;
1839;SDS011;920;48.944;9.148;2023-09-19T10:56:53;4.33;;;1.37;;
1839;SDS011;920;48.944;9.148;2023-09-19T10:59:24;2.40;;;1.30;;
1839;SDS011;920;48.944;9.148;2023-09-19T11:01:51;3.07;;;1.20;;
1839;SDS011;920;48.944;9.148;2023-09-19T11:04:22;3.00;;;1.23;;
1839;SDS011;920;48.944;9.148;2023-09-19T11:07:00;3.00;;;1.10;;
1839;SDS011;920;48.944;9.148;2023-09-19T11:09:45;3.50;;;1.43;;
1839;SDS011;920;48.944;9.148;2023-09-19T11:12:12;1.90;;;1.10;;
1839;SDS011;920;48.944;9.148;2023-09-19T11:27:10;2.27;;;1.20;;
1839;SDS011;920;48.944;9.148;2023-09-19T11:29:38;2.77;;;1.17;;
1839;SDS011;920;48.944;9.148;2023-09-19T11:32:06;3.50;;;1.30;;
1839;SDS011;920;48.944;9.148;2023-09-19T11:40:38;2.50;;;1.30;;
1839;SDS011;920;48.944;9.148;2023-09-19T11:46:06;3.43;;;1.40;;
1839;SDS011;920;48.944;9.148;2023-09-19T11:48:34;3.00;;;1.37;;
1839;SDS011;920;48.944;9.148;2023-09-19T11:51:10;2.97;;;1.50;;
1839;SDS011;920;48.944;9.148;2023-09-19T11:53:41;2.87;;;1.50;;
1839;SDS011;920;48.944;9.148;2023-09-19T11:56:10;2.70;;;1.40;;
1839;SDS011;920;48.944;9.148;2023-09-19T11:58:40;3.50;;;1.97;;
1839;SDS011;920;48.944;9.148;2023-09-19T12:01:07;3.20;;;1.53;;
1839;SDS011;920;48.944;9.148;2023-09-19T12:03:38;3.63;;;2.00;;
1839;SDS011;920;48.944;9.148;2023-09-19T12:06:11;2.77;;;1.30;;
1839;SDS011;920;48.944;9.148;2023-09-19T12:08:40;2.60;;;1.40;;
1839;SDS011;920;48.944;9.148;2023-09-19T12:11:13;2.60;;;1.47;;
1839;SDS011;920;48.944;9.148;2023-09-19T12:13:41;2.10;;;1.20;;
1839;SDS011;920;48.944;9.148;2023-09-19T12:16:13;3.50;;;1.70;;
1839;SDS011;920;48.944;9.148;2023-09-19T12:18:41;2.80;;;1.70;;
1839;SDS011;920;48.944;9.148;2023-09-19T12:21:21;3.17;;;1.37;;
1839;SDS011;920;48.944;9.148;2023-09-19T12:24:04;2.40;;;1.23;;
1839;SDS011;920;48.944;9.148;2023-09-19T12:26:41;2.90;;;1.33;;
1839;SDS011;920;48.944;9.148;2023-09-19T12:29:14;2.60;;;1.50;;
1839;SDS011;920;48.944;9.148;2023-09-19T12:31:49;3.03;;;1.73;;
1839;SDS011;920;48.944;9.148;2023-09-19T12:34:21;3.60;;;1.67;;
1839;SDS011;920;48.944;9.148;2023-09-19T12:39:46;2.70;;;1.53;;
1839;SDS011;920;48.944;9.148;2023-09-19T12:42:15;2.97;;;1.50;;
1839;SDS011;920;48.944;9.148;2023-09-19T12:44:43;2.70;;;1.33;;
1839;SDS011;920;48.944;9.148;2023-09-19T12:47:12;2.20;;;1.30;;
1839;SDS011;920;48.944;9.148;2023-09-19T12:52:36;2.80;;;1.67;;
1839;SDS011;920;48.944;9.148;2023-09-19T12:55:03;4.13;;;1.63;;
1839;SDS011;920;48.944;9.148;2023-09-19T12:57:33;2.30;;;1.30;;
1839;SDS011;920;48.944;9.148;2023-09-19T13:00:00;3.77;;;1.90;;
1839;SDS011;920;48.944;9.148;2023-09-19T13:02:27;2.80;;;1.33;;
1839;SDS011;920;48.944;9.148;2023-09-19T13:04:54;4.53;;;1.80;;
1839;SDS011;920;48.944;9.148;2023-09-19T13:10:09;2.77;;;1.53;;
1839;SDS011;920;48.944;9.148;2023-09-19T13:12:38;2.27;;;1.50;;
1839;SDS011;920;48.944;9.148;2023-09-19T13:15:08;2.50;;;1.40;;
1839;SDS011;920;48.944;9.148;2023-09-19T13:17:45;2.80;;;1.20;;
1839;SDS011;920;48.944;9.148;2023-09-19T13:20:23;3.00;;;1.50;;
1839;SDS011;920;48.944;9.148;2023-09-19T13:23:04;2.90;;;1.60;;
1839;SDS011;920;48.944;9.148;2023-09-19T13:25:35;2.97;;;1.37;;
1839;SDS011;920;48.944;9.148;2023-09-19T13:28:06;2.30;;;1.30;;
1839;SDS011;920;48.944;9.148;2023-09-19T13:30:33;2.77;;;1.47;;
1839;SDS011;920;48.944;9.148;2023-09-19T13:33:08;4.07;;;1.50;;
1839;SDS011;920;48.944;9.148;2023-09-19T13:35:35;2.40;;;1.40;;
1839;SDS011;920;48.944;9.148;2023-09-19T13:38:03;3.40;;;1.40;;
1839;SDS011;920;48.944;9.148;2023-09-19T13:40:31;3.20;;;1.20;;
1839;SDS011;920;48.944;9.148;2023-09-19T13:43:00;2.90;;;1.33;;
1839;SDS011;920;48.944;9.148;2023-09-19T13:45:28;2.70;;;1.40;;
1839;SDS011;920;48.944;9.148;2023-09-19T13:47:55;3.10;;;1.40;;
1839;SDS011;920;48.944;9.148;2023-09-19T13:50:22;2.40;;;1.50;;
1839;SDS011;920;48.944;9.148;2023-09-19T13:52:50;3.10;;;1.40;;
1839;SDS011;920;48.944;9.148;2023-09-19T13:55:18;2.40;;;1.50;;
1839;SDS011;920;48.944;9.148;2023-09-19T13:57:45;2.43;;;1.40;;
1839;SDS011;920;48.944;9.148;2023-09-19T14:00:15;2.53;;;1.40;;
1839;SDS011;920;48.944;9.148;2023-09-19T14:02:44;3.87;;;1.40;;
1839;SDS011;920;48.944;9.148;2023-09-19T14:05:11;3.10;;;1.30;;
1839;SDS011;920;48.944;9.148;2023-09-19T14:07:40;2.40;;;1.40;;
1839;SDS011;920;48.944;9.148;2023-09-19T14:10:07;2.90;;;1.33;;
1839;SDS011;920;48.944;9.148;2023-09-19T14:12:35;2.40;;;1.40;;
1839;SDS011;920;48.944;9.148;2023-09-19T14:15:02;2.70;;;1.33;;
1839;SDS011;920;48.944;9.148;2023-09-19T14:17:29;2.30;;;1.30;;
1839;SDS011;920;48.944;9.148;2023-09-19T14:19:58;2.40;;;1.50;;
1839;SDS011;920;48.944;9.148;2023-09-19T14:22:24;2.87;;;1.20;;
1839;SDS011;920;48.944;9.148;2023-09-19T14:24:51;3.80;;;1.30;;
1839;SDS011;920;48.944;9.148;2023-09-19T14:27:18;3.40;;;1.20;;
1839;SDS011;920;48.944;9.148;2023-09-19T14:29:45;3.30;;;1.33;;
1839;SDS011;920;48.944;9.148;2023-09-19T14:32:11;3.60;;;1.40;;
1839;SDS011;920;48.944;9.148;2023-09-19T14:34:38;2.87;;;1.43;;
1839;SDS011;920;48.944;9.148;2023-09-19T14:37:09;2.97;;;1.20;;
1839;SDS011;920;48.944;9.148;2023-09-19T14:39:36;2.23;;;1.10;;
1839;SDS011;920;48.944;9.148;2023-09-19T14:42:04;2.20;;;1.30;;
1839;SDS011;920;48.944;9.148;2023-09-19T14:44:30;3.27;;;1.23;;
1839;SDS011;920;48.944;9.148;2023-09-19T14:46:57;3.40;;;1.40;;
1839;SDS011;920;48.944;9.148;2023-09-19T14:49:24;3.10;;;1.37;;
1839;SDS011;920;48.944;9.148;2023-09-19T14:51:51;2.50;;;1.20;;
1839;SDS011;920;48.944;9.148;2023-09-19T14:54:19;2.30;;;1.00;;
1839;SDS011;920;48.944;9.148;2023-09-19T14:56:46;2.57;;;1.23;;
1839;SDS011;920;48.944;9.148;2023-09-19T14:59:18;2.73;;;1.20;;
1839;SDS011;920;48.944;9.148;2023-09-19T15:01:45;2.27;;;1.20;;
1839;SDS011;920;48.944;9.148;2023-09-19T15:04:15;3.13;;;1.27;;
1839;SDS011;920;48.944;9.148;2023-09-19T15:06:41;1.97;;;1.20;;
1839;SDS011;920;48.944;9.148;2023-09-19T15:09:08;2.30;;;1.10;;
1839;SDS011;920;48.944;9.148;2023-09-19T15:11:38;2.53;;;1.20;;
1839;SDS011;920;48.944;9.148;2023-09-19T15:14:04;1.87;;;1.00;;
1839;SDS011;920;48.944;9.148;2023-09-19T15:16:31;2.50;;;1.30;;
1839;SDS011;920;48.944;9.148;2023-09-19T15:18:58;1.97;;;1.10;;
1839;SDS011;920;48.944;9.148;2023-09-19T15:21:25;3.83;;;1.30;;
1839;SDS011;920;48.944;9.148;2023-09-19T15:23:52;2.23;;;1.00;;
1839;SDS011;920;48.944;9.148;2023-09-19T15:26:17;2.40;;;1.20;;
1839;SDS011;920;48.944;9.148;2023-09-19T15:28:48;2.30;;;1.20;;
1839;SDS011;920;48.944;9.148;2023-09-19T15:31:14;2.47;;;1.10;;
1839;SDS011;920;48.944;9.148;2023-09-19T15:33:41;5.23;;;1.20;;
1839;SDS011;920;48.944;9.148;2023-09-19T15:36:09;2.20;;;1.30;;
1839;SDS011;920;48.944;9.148;2023-09-19T15:38:56;1.90;;;1.20;;
1839;SDS011;920;48.944;9.148;2023-09-19T15:41:26;2.53;;;1.13;;
1839;SDS011;920;48.944;9.148;2023-09-19T15:43:55;2.33;;;1.10;;
1839;SDS011;920;48.944;9.148;2023-09-19T15:46:23;2.10;;;1.10;;
1839;SDS011;920;48.944;9.148;2023-09-19T15:48:51;2.07;;;1.00;;
1839;SDS011;920;48.944;9.148;2023-09-19T15:51:18;2.03;;;1.20;;
1839;SDS011;920;48.944;9.148;2023-09-19T15:53:45;2.50;;;1.00;;
1839;SDS011;920;48.944;9.148;2023-09-19T15:56:13;2.63;;;1.20;;
1839;SDS011;920;48.944;9.148;2023-09-19T15:58:43;2.60;;;1.20;;
1839;SDS011;920;48.944;9.148;2023-09-19T16:01:12;2.40;;;0.97;;
1839;SDS011;920;48.944;9.148;2023-09-19T16:03:39;2.27;;;1.10;;
1839;SDS011;920;48.944;9.148;2023-09-19T16:06:08;2.10;;;0.90;;
1839;SDS011;920;48.944;9.148;2023-09-19T16:08:38;1.90;;;1.30;;
1839;SDS011;920;48.944;9.148;2023-09-19T16:11:06;2.10;;;1.10;;
1839;SDS011;920;48.944;9.148;2023-09-19T16:13:33;2.77;;;1.20;;
1839;SDS011;920;48.944;9.148;2023-09-19T16:15:59;2.20;;;1.30;;
1839;SDS011;920;48.944;9.148;2023-09-19T16:18:28;2.27;;;1.10;;
1839;SDS011;920;48.944;9.148;2023-09-19T16:21:00;2.10;;;1.20;;
1839;SDS011;920;48.944;9.148;2023-09-19T16:23:27;2.10;;;1.20;;
1839;SDS011;920;48.944;9.148;2023-09-19T16:26:02;2.30;;;1.10;;
1839;SDS011;920;48.944;9.148;2023-09-19T16:28:31;2.33;;;1.17;;
1839;SDS011;920;48.944;9.148;2023-09-19T16:30:59;2.27;;;0.93;;
1839;SDS011;920;48.944;9.148;2023-09-19T16:33:29;2.20;;;1.10;;